Time;durP1;ratioP1;P1;durP2;ratioP2;P2;SDS_P1;SDS_P2;PMS_P1;PMS_P2;Temp;Humidity;BMP_temperature;BMP_pressure;BME280_temperature;BME280_humidity;BME280_pressure;Samples;Min_cycle;Max_cycle;Signal;HPM_P1;HPM_P2
2023/03/06 00:00:54;;;;;;;16.47;12.87;;;6.40;99.90;;;;;;5049398;28;20434;-75
2023/03/06 00:03:21;;;;;;;17.67;12.40;;;6.40;99.90;;;;;;5044675;28;20449;-74
2023/03/06 00:05:46;;;;;;;17.37;11.77;;;6.40;99.90;;;;;;5044164;28;20434;-75
2023/03/06 00:08:12;;;;;;;14.93;11.60;;;6.50;99.90;;;;;;5048788;28;20429;-76
2023/03/06 00:10:39;;;;;;;20.50;12.07;;;6.50;99.90;;;;;;5046867;28;20266;-76
2023/03/06 00:13:07;;;;;;;20.47;12.17;;;6.40;99.90;;;;;;5049603;28;20662;-74
2023/03/06 00:15:32;;;;;;;18.37;12.13;;;6.30;99.90;;;;;;5049281;28;20482;-74
2023/03/06 00:17:58;;;;;;;18.63;12.90;;;6.30;99.90;;;;;;5051342;28;20441;-74
2023/03/06 00:20:25;;;;;;;18.00;11.70;;;6.20;99.90;;;;;;5053280;28;20180;-75
2023/03/06 00:22:51;;;;;;;18.03;12.10;;;6.30;99.90;;;;;;5050823;28;20431;-75
2023/03/06 00:25:19;;;;;;;17.73;12.70;;;6.40;99.90;;;;;;5048925;28;20433;-76
2023/03/06 00:27:45;;;;;;;18.10;12.80;;;6.30;99.90;;;;;;5052182;28;20492;-76
2023/03/06 00:30:13;;;;;;;16.77;11.50;;;6.30;99.90;;;;;;5051634;28;20537;-76
2023/03/06 00:32:39;;;;;;;16.93;11.73;;;6.20;99.90;;;;;;5051928;28;20560;-76
2023/03/06 00:35:05;;;;;;;18.83;12.60;;;6.30;99.90;;;;;;5053329;28;20464;-76
2023/03/06 00:37:31;;;;;;;19.27;11.53;;;6.30;99.90;;;;;;5051848;28;20281;-76
2023/03/06 00:39:57;;;;;;;16.70;12.07;;;6.30;99.90;;;;;;5047750;28;20992;-77
2023/03/06 00:42:22;;;;;;;17.43;12.73;;;6.30;99.90;;;;;;5051075;28;20179;-77
2023/03/06 00:44:48;;;;;;;16.97;12.60;;;6.20;99.90;;;;;;5053217;28;20179;-77
2023/03/06 00:47:16;;;;;;;16.67;12.00;;;6.30;99.90;;;;;;5048810;28;20230;-77
2023/03/06 00:49:43;;;;;;;17.90;12.13;;;6.30;99.90;;;;;;5053957;28;20638;-76
2023/03/06 00:52:08;;;;;;;16.47;12.30;;;6.20;99.90;;;;;;5045652;28;20437;-75
2023/03/06 00:54:34;;;;;;;24.30;14.67;;;6.20;99.90;;;;;;5048543;28;20510;-75
2023/03/06 00:56:59;;;;;;;18.40;12.73;;;6.30;99.90;;;;;;5051986;28;20203;-74
2023/03/06 00:59:26;;;;;;;15.30;11.97;;;6.30;99.90;;;;;;5046396;28;20297;-74
2023/03/06 01:01:52;;;;;;;16.63;11.97;;;6.30;99.90;;;;;;5047171;28;20180;-74
2023/03/06 01:04:18;;;;;;;17.23;12.17;;;6.30;99.90;;;;;;5049777;28;20436;-73
2023/03/06 01:06:43;;;;;;;17.30;12.93;;;6.30;99.90;;;;;;5045393;28;21057;-74
2023/03/06 01:09:09;;;;;;;19.60;12.80;;;6.40;99.90;;;;;;5050012;28;20720;-74
2023/03/06 01:11:34;;;;;;;18.53;11.70;;;6.30;99.90;;;;;;5049833;28;20260;-76
2023/03/06 01:14:00;;;;;;;15.13;11.93;;;6.30;99.90;;;;;;5052046;28;20178;-76
2023/03/06 01:16:25;;;;;;;19.67;12.67;;;6.20;99.90;;;;;;5052579;28;20451;-76
2023/03/06 01:18:51;;;;;;;17.53;12.40;;;6.20;99.90;;;;;;5046130;28;20210;-75
2023/03/06 01:21:16;;;;;;;17.43;12.20;;;6.30;99.90;;;;;;5055600;28;20261;-76
2023/03/06 01:23:42;;;;;;;19.97;12.77;;;6.30;99.90;;;;;;5044387;28;20671;-76
2023/03/06 01:26:08;;;;;;;21.53;12.40;;;6.20;99.90;;;;;;5044532;28;20576;-75
2023/03/06 01:28:36;;;;;;;17.53;11.90;;;6.20;99.90;;;;;;5047762;28;20266;-76
2023/03/06 01:31:02;;;;;;;17.23;12.50;;;6.30;99.90;;;;;;5046992;28;20437;-75
2023/03/06 01:33:28;;;;;;;17.53;11.63;;;6.30;99.90;;;;;;5047433;28;20444;-75
2023/03/06 01:35:53;;;;;;;17.27;11.83;;;6.30;99.90;;;;;;5045684;28;20467;-75
2023/03/06 01:38:19;;;;;;;16.30;12.60;;;6.20;99.90;;;;;;5038176;28;20222;-75
2023/03/06 01:40:45;;;;;;;19.40;12.73;;;6.20;99.90;;;;;;5045318;28;20187;-75
2023/03/06 01:43:26;;;;;;;17.57;12.80;;;6.20;99.90;;;;;;5045370;28;20191;-76
2023/03/06 01:46:10;;;;;;;17.23;13.57;;;6.10;99.90;;;;;;5042730;28;21037;-75
2023/03/06 01:48:36;;;;;;;18.13;13.33;;;6.10;99.90;;;;;;5049520;28;20432;-76
2023/03/06 01:51:01;;;;;;;19.17;11.83;;;6.20;99.90;;;;;;5048591;28;21005;-76
2023/03/06 01:53:27;;;;;;;19.83;13.23;;;6.10;99.90;;;;;;5050050;28;20695;-75
2023/03/06 01:55:53;;;;;;;22.30;13.00;;;6.10;99.90;;;;;;5046508;28;20213;-74
2023/03/06 01:58:19;;;;;;;17.17;12.03;;;6.10;99.90;;;;;;5050309;28;20214;-75
2023/03/06 02:00:45;;;;;;;22.57;14.23;;;6.10;99.90;;;;;;5050427;28;20486;-75
2023/03/06 02:03:18;;;;;;;18.13;12.90;;;6.00;99.90;;;;;;5048110;28;20863;-75
2023/03/06 02:05:44;;;;;;;16.30;12.30;;;6.00;99.90;;;;;;5049789;28;20175;-74
2023/03/06 02:08:13;;;;;;;21.43;13.10;;;5.80;99.90;;;;;;5047389;28;20820;-74
2023/03/06 02:10:42;;;;;;;19.60;12.93;;;5.90;99.90;;;;;;5047181;28;20548;-75
2023/03/06 02:13:08;;;;;;;17.73;12.87;;;6.00;99.90;;;;;;5049013;28;20451;-76
2023/03/06 02:15:34;;;;;;;16.80;12.10;;;6.00;99.90;;;;;;5045159;28;20434;-76
2023/03/06 02:18:00;;;;;;;21.77;11.20;;;6.00;99.90;;;;;;5057345;28;20324;-75
2023/03/06 02:20:38;;;;;;;17.67;11.67;;;6.10;99.90;;;;;;5056544;28;20299;-75
2023/03/06 02:23:15;;;;;;;21.23;12.87;;;6.00;99.90;;;;;;5056329;28;20850;-75
2023/03/06 02:25:44;;;;;;;15.87;11.63;;;6.00;99.90;;;;;;5053541;28;20456;-75
2023/03/06 02:28:14;;;;;;;16.63;11.80;;;5.90;99.90;;;;;;5055966;28;21676;-75
2023/03/06 02:30:41;;;;;;;21.43;12.37;;;5.90;99.90;;;;;;5053288;28;20502;-74
2023/03/06 02:33:11;;;;;;;20.30;12.80;;;6.00;99.90;;;;;;5056839;28;20924;-74
2023/03/06 02:35:39;;;;;;;19.10;11.87;;;6.00;99.90;;;;;;5053150;28;20434;-75
2023/03/06 02:38:12;;;;;;;19.27;12.27;;;6.10;99.90;;;;;;5054651;28;20547;-75
2023/03/06 02:40:37;;;;;;;22.70;12.63;;;6.20;99.90;;;;;;5054648;28;20426;-75
2023/03/06 02:43:03;;;;;;;23.83;14.37;;;6.10;99.90;;;;;;5056413;28;20425;-75
2023/03/06 02:45:35;;;;;;;17.70;12.53;;;6.00;99.90;;;;;;5056363;28;20602;-75
2023/03/06 02:48:01;;;;;;;18.07;12.13;;;6.00;99.90;;;;;;5052450;28;20459;-75
2023/03/06 02:50:27;;;;;;;21.10;14.33;;;6.00;99.90;;;;;;5051117;28;20537;-75
2023/03/06 02:52:52;;;;;;;22.10;13.27;;;6.00;99.90;;;;;;5044480;28;21958;-74
2023/03/06 02:55:18;;;;;;;19.03;12.10;;;5.90;99.90;;;;;;5050791;28;20183;-74
2023/03/06 02:57:44;;;;;;;21.73;14.37;;;5.90;99.90;;;;;;5052942;28;20203;-74
2023/03/06 03:00:10;;;;;;;19.57;13.63;;;5.90;99.90;;;;;;5051004;28;20247;-74
2023/03/06 03:02:36;;;;;;;20.30;13.40;;;5.80;99.90;;;;;;5051018;28;20194;-75
2023/03/06 03:05:01;;;;;;;23.70;14.63;;;5.90;99.90;;;;;;5050409;28;20882;-74
2023/03/06 03:07:27;;;;;;;24.20;15.10;;;5.90;99.90;;;;;;5050774;28;20290;-74
2023/03/06 03:09:52;;;;;;;23.10;13.80;;;5.80;99.90;;;;;;5049273;28;20179;-74
2023/03/06 03:12:18;;;;;;;21.37;13.13;;;5.90;99.90;;;;;;5051782;28;20183;-74
2023/03/06 03:14:44;;;;;;;20.77;13.30;;;5.90;99.90;;;;;;5050273;28;20187;-74
2023/03/06 03:17:09;;;;;;;23.70;14.57;;;5.90;99.90;;;;;;5046622;28;20219;-76
2023/03/06 03:19:35;;;;;;;21.10;13.67;;;5.90;99.90;;;;;;5047827;28;20218;-75
2023/03/06 03:22:00;;;;;;;23.67;14.07;;;5.70;99.90;;;;;;5049241;28;20605;-76
2023/03/06 03:24:26;;;;;;;21.17;13.23;;;5.80;99.90;;;;;;5049189;28;20980;-74
2023/03/06 03:26:52;;;;;;;21.57;14.20;;;5.90;99.90;;;;;;5043324;28;20388;-73
2023/03/06 03:29:18;;;;;;;23.33;14.13;;;6.00;99.90;;;;;;5045498;28;20628;-75
2023/03/06 03:31:43;;;;;;;24.20;13.83;;;5.90;99.90;;;;;;5040729;28;20198;-74
2023/03/06 03:34:09;;;;;;;23.67;15.40;;;5.90;99.90;;;;;;5047762;28;20445;-73
2023/03/06 03:36:35;;;;;;;24.40;14.93;;;5.80;99.90;;;;;;5047191;28;20273;-73
2023/03/06 03:39:00;;;;;;;19.10;13.60;;;5.80;99.90;;;;;;5050056;28;20597;-73
2023/03/06 03:41:26;;;;;;;28.00;14.87;;;5.80;99.90;;;;;;5050579;28;20658;-73
2023/03/06 03:43:51;;;;;;;27.10;15.53;;;5.80;99.90;;;;;;5047482;28;20186;-74
2023/03/06 03:46:18;;;;;;;20.00;14.77;;;5.70;99.90;;;;;;5044615;28;20219;-74
2023/03/06 03:48:43;;;;;;;23.07;13.83;;;5.80;99.90;;;;;;5047452;28;20688;-74
2023/03/06 03:51:11;;;;;;;19.93;14.13;;;5.80;99.90;;;;;;5045119;28;20446;-74
2023/03/06 03:53:38;;;;;;;23.50;16.53;;;5.70;99.90;;;;;;5051103;28;20245;-74
2023/03/06 03:56:04;;;;;;;23.07;15.33;;;5.70;99.90;;;;;;5046559;28;20488;-73
2023/03/06 03:58:30;;;;;;;23.63;13.97;;;5.70;99.90;;;;;;5044593;28;20461;-74
2023/03/06 04:00:55;;;;;;;21.87;13.90;;;5.80;99.90;;;;;;5034423;28;20494;-74
2023/03/06 04:03:21;;;;;;;19.93;14.30;;;5.80;99.90;;;;;;5042409;28;20179;-74
2023/03/06 04:05:46;;;;;;;21.50;14.20;;;5.80;99.90;;;;;;5047808;28;20184;-74
2023/03/06 04:08:12;;;;;;;23.77;14.50;;;5.70;99.90;;;;;;5046358;28;20182;-75
2023/03/06 04:10:38;;;;;;;21.43;13.70;;;5.60;99.90;;;;;;5044194;28;20229;-75
2023/03/06 04:13:04;;;;;;;24.93;14.17;;;5.60;99.90;;;;;;5047124;28;20225;-74
2023/03/06 04:15:30;;;;;;;23.97;14.77;;;5.60;99.90;;;;;;5047521;28;20433;-73
2023/03/06 04:17:55;;;;;;;19.70;12.97;;;5.60;99.90;;;;;;5050230;28;21447;-74
2023/03/06 04:20:21;;;;;;;22.40;14.40;;;5.70;99.90;;;;;;5051495;28;20715;-74
2023/03/06 04:22:46;;;;;;;22.93;13.90;;;5.60;99.90;;;;;;5053745;28;20183;-74
2023/03/06 04:25:12;;;;;;;19.60;12.87;;;5.50;99.90;;;;;;5052509;28;20258;-74
2023/03/06 04:27:38;;;;;;;21.67;14.00;;;5.60;99.90;;;;;;5052997;28;20336;-74
2023/03/06 04:30:04;;;;;;;26.87;16.47;;;5.70;99.90;;;;;;5048252;28;20186;-74
2023/03/06 04:32:30;;;;;;;22.50;14.20;;;5.60;99.90;;;;;;5051159;28;20261;-74
2023/03/06 04:34:56;;;;;;;23.30;14.43;;;5.60;99.90;;;;;;5047898;28;21547;-74
2023/03/06 04:37:24;;;;;;;23.73;14.67;;;5.60;99.90;;;;;;5051020;28;20257;-73
2023/03/06 04:39:50;;;;;;;21.57;14.47;;;5.60;99.90;;;;;;5053535;28;20215;-75
2023/03/06 04:42:16;;;;;;;21.37;15.57;;;5.60;99.90;;;;;;5051992;28;20429;-75
2023/03/06 04:44:42;;;;;;;23.97;14.53;;;5.50;99.90;;;;;;5049799;28;20440;-74
2023/03/06 04:47:08;;;;;;;26.87;15.57;;;5.60;99.90;;;;;;5048803;28;20461;-74
2023/03/06 04:49:34;;;;;;;21.43;13.67;;;5.70;99.90;;;;;;5045569;28;20481;-74
2023/03/06 04:51:59;;;;;;;24.60;14.73;;;5.70;99.90;;;;;;5042931;28;20904;-73
2023/03/06 04:54:25;;;;;;;19.43;14.07;;;5.70;99.90;;;;;;5046264;28;20856;-73
2023/03/06 04:56:50;;;;;;;25.20;14.37;;;5.50;99.90;;;;;;5045056;28;20330;-73
2023/03/06 04:59:16;;;;;;;25.43;14.57;;;5.50;99.90;;;;;;5052154;28;20748;-73
2023/03/06 05:01:41;;;;;;;24.33;15.53;;;5.50;99.90;;;;;;5045683;28;20187;-73
2023/03/06 05:04:07;;;;;;;27.03;15.53;;;5.60;99.90;;;;;;5047077;28;20191;-73
2023/03/06 05:06:32;;;;;;;22.10;15.10;;;5.50;99.90;;;;;;5045829;28;20665;-73
2023/03/06 05:08:58;;;;;;;23.43;15.30;;;5.50;99.90;;;;;;5046138;28;20363;-73
2023/03/06 05:11:24;;;;;;;21.90;15.00;;;5.60;99.90;;;;;;5044218;28;20187;-73
2023/03/06 05:13:50;;;;;;;24.00;15.70;;;5.50;99.90;;;;;;5043682;28;20714;-73
2023/03/06 05:16:16;;;;;;;24.27;14.70;;;5.40;99.90;;;;;;5044753;28;20198;-73
2023/03/06 05:18:41;;;;;;;21.97;15.10;;;5.40;99.90;;;;;;5045167;28;20466;-73
2023/03/06 05:21:07;;;;;;;21.17;15.10;;;5.50;99.90;;;;;;5042875;28;20864;-73
2023/03/06 05:23:40;;;;;;;23.70;15.17;;;5.50;99.90;;;;;;5045105;28;20194;-74
2023/03/06 05:26:11;;;;;;;23.87;17.03;;;5.50;99.90;;;;;;5044400;28;20616;-74
2023/03/06 05:28:36;;;;;;;24.37;16.17;;;5.50;99.90;;;;;;5043166;28;20434;-74
2023/03/06 05:31:02;;;;;;;28.70;15.77;;;5.60;99.90;;;;;;5044243;28;20441;-75
2023/03/06 05:33:29;;;;;;;27.20;15.43;;;5.50;99.90;;;;;;5039976;28;20266;-72
2023/03/06 05:35:55;;;;;;;21.70;15.83;;;5.60;99.90;;;;;;5037499;28;20740;-70
2023/03/06 05:38:21;;;;;;;25.20;15.87;;;5.70;99.90;;;;;;5042087;28;20563;-71
2023/03/06 05:40:47;;;;;;;24.13;14.00;;;5.60;99.90;;;;;;5045786;28;20203;-70
2023/03/06 05:43:13;;;;;;;28.80;14.80;;;5.60;99.90;;;;;;5043273;28;20524;-71
2023/03/06 05:45:39;;;;;;;21.30;13.27;;;5.50;99.90;;;;;;5039667;28;20186;-71
2023/03/06 05:48:06;;;;;;;23.57;15.17;;;5.50;99.90;;;;;;5033101;28;20744;-71
2023/03/06 05:50:32;;;;;;;26.73;14.73;;;5.50;99.90;;;;;;5039981;28;20439;-72
2023/03/06 05:52:57;;;;;;;21.10;14.93;;;5.60;99.90;;;;;;5035252;28;20919;-72
2023/03/06 05:55:23;;;;;;;25.00;16.07;;;5.50;99.90;;;;;;5034983;28;20609;-72
2023/03/06 05:57:50;;;;;;;22.50;13.80;;;5.50;99.90;;;;;;5039371;28;20711;-72
2023/03/06 06:00:16;;;;;;;28.40;15.77;;;5.50;99.90;;;;;;5035084;28;20600;-71
2023/03/06 06:02:42;;;;;;;27.33;15.70;;;5.50;99.90;;;;;;5041360;28;20477;-71
2023/03/06 06:05:09;;;;;;;23.60;14.13;;;5.50;99.90;;;;;;5042584;28;20434;-72
2023/03/06 06:07:35;;;;;;;24.40;15.43;;;5.50;99.90;;;;;;5041921;28;20468;-71
2023/03/06 06:10:00;;;;;;;24.27;14.43;;;5.40;99.90;;;;;;5040474;28;20445;-72
2023/03/06 06:12:26;;;;;;;26.03;15.60;;;5.50;99.90;;;;;;5052875;28;20448;-71
2023/03/06 06:14:52;;;;;;;27.70;16.57;;;5.60;99.90;;;;;;5047629;28;20467;-71
2023/03/06 06:17:18;;;;;;;23.40;14.67;;;5.60;99.90;;;;;;5049558;28;20499;-72
2023/03/06 06:19:44;;;;;;;26.13;15.03;;;5.60;99.90;;;;;;5047343;28;20203;-71
2023/03/06 06:22:11;;;;;;;22.67;13.83;;;5.60;99.90;;;;;;5037078;28;20212;-72
2023/03/06 06:24:37;;;;;;;23.97;14.97;;;5.60;99.90;;;;;;5046494;28;20460;-72
2023/03/06 06:27:03;;;;;;;21.83;15.13;;;5.60;99.90;;;;;;5048782;28;20557;-72
2023/03/06 06:29:28;;;;;;;27.40;14.90;;;5.60;99.90;;;;;;5046278;28;20210;-72
2023/03/06 06:31:54;;;;;;;25.27;16.10;;;5.60;99.90;;;;;;5049884;28;20439;-72
2023/03/06 06:34:21;;;;;;;27.17;16.07;;;5.60;99.90;;;;;;5047557;28;20183;-72
2023/03/06 06:36:48;;;;;;;21.20;14.57;;;5.70;99.90;;;;;;5051419;28;21033;-71
2023/03/06 06:39:16;;;;;;;28.00;16.63;;;5.60;99.90;;;;;;5052708;28;20452;-72
2023/03/06 06:41:43;;;;;;;22.37;14.97;;;5.70;99.90;;;;;;5050362;28;20509;-71
2023/03/06 06:44:13;;;;;;;26.97;15.90;;;5.60;99.90;;;;;;5048936;28;21026;-72
2023/03/06 06:46:39;;;;;;;28.03;16.37;;;5.60;99.90;;;;;;5047661;28;20472;-73
2023/03/06 06:49:05;;;;;;;24.57;15.30;;;5.50;99.90;;;;;;5053157;28;21022;-73
2023/03/06 06:51:32;;;;;;;25.13;14.63;;;5.50;99.90;;;;;;5054014;28;20430;-72
2023/03/06 06:53:58;;;;;;;25.90;16.10;;;5.50;99.90;;;;;;5052184;28;20206;-71
2023/03/06 06:56:24;;;;;;;25.00;17.07;;;5.50;99.90;;;;;;5050373;28;20966;-71
2023/03/06 06:58:54;;;;;;;32.93;17.57;;;5.50;99.90;;;;;;5046685;28;20461;-71
2023/03/06 07:01:21;;;;;;;27.33;17.30;;;5.40;99.90;;;;;;5053847;28;20429;-71
2023/03/06 07:03:46;;;;;;;26.77;16.67;;;5.40;99.90;;;;;;5049439;28;20488;-71
2023/03/06 07:06:12;;;;;;;25.10;15.80;;;5.50;99.90;;;;;;5053747;28;20981;-71
2023/03/06 07:08:37;;;;;;;28.50;16.60;;;5.60;99.90;;;;;;5048565;28;20207;-72
2023/03/06 07:11:07;;;;;;;29.10;15.97;;;5.60;99.90;;;;;;5047784;28;20188;-71
2023/03/06 07:13:33;;;;;;;23.20;15.33;;;5.50;99.90;;;;;;5054979;28;20182;-71
2023/03/06 07:15:59;;;;;;;29.90;15.37;;;5.50;99.90;;;;;;5052685;28;20529;-71
2023/03/06 07:18:24;;;;;;;23.17;16.20;;;5.60;99.90;;;;;;5047660;28;21105;-72
2023/03/06 07:20:52;;;;;;;23.37;15.23;;;5.40;99.90;;;;;;5049172;28;20176;-70
2023/03/06 07:23:18;;;;;;;26.43;16.30;;;5.50;99.90;;;;;;5055807;28;20844;-72
2023/03/06 07:25:44;;;;;;;25.20;17.17;;;5.60;99.90;;;;;;5050233;28;20441;-72
2023/03/06 07:28:09;;;;;;;27.77;17.37;;;5.60;99.90;;;;;;5051115;28;20245;-72
2023/03/06 07:30:35;;;;;;;22.97;17.50;;;5.60;99.90;;;;;;5050731;28;20183;-72
2023/03/06 07:33:00;;;;;;;31.03;18.67;;;5.60;99.90;;;;;;5047216;28;20194;-71
2023/03/06 07:35:26;;;;;;;32.00;17.63;;;5.70;99.90;;;;;;5051435;28;20595;-71
2023/03/06 07:37:52;;;;;;;29.40;16.53;;;5.60;99.90;;;;;;5051067;28;20498;-70
2023/03/06 07:40:18;;;;;;;31.33;16.47;;;5.60;99.90;;;;;;5054367;28;20218;-71
2023/03/06 07:42:44;;;;;;;26.93;16.87;;;5.60;99.90;;;;;;5048437;28;20175;-70
2023/03/06 07:45:11;;;;;;;29.23;15.77;;;5.70;99.90;;;;;;5046611;28;20469;-71
2023/03/06 07:47:37;;;;;;;28.03;16.27;;;5.70;99.90;;;;;;5049605;28;20657;-71
2023/03/06 07:50:06;;;;;;;21.63;16.23;;;5.60;99.90;;;;;;5052213;28;20445;-70
2023/03/06 07:52:32;;;;;;;24.13;16.50;;;5.60;99.90;;;;;;5051882;28;20441;-71
2023/03/06 07:54:58;;;;;;;25.30;16.27;;;5.60;99.90;;;;;;5044242;28;20442;-70
2023/03/06 07:57:23;;;;;;;22.23;14.27;;;5.70;99.90;;;;;;5048411;28;20441;-71
2023/03/06 07:59:49;;;;;;;22.43;14.80;;;5.70;99.90;;;;;;5049262;28;20471;-70
2023/03/06 08:02:15;;;;;;;24.30;15.70;;;5.70;99.90;;;;;;5053286;28;20191;-72
2023/03/06 08:04:41;;;;;;;30.20;14.87;;;5.80;99.90;;;;;;5054158;28;20584;-74
2023/03/06 08:07:06;;;;;;;26.70;14.87;;;5.80;99.90;;;;;;5050825;28;21988;-73
2023/03/06 08:09:33;;;;;;;31.50;16.10;;;5.70;99.90;;;;;;5052172;28;20434;-72
2023/03/06 08:11:59;;;;;;;28.20;15.80;;;5.60;99.90;;;;;;5048077;28;20194;-74
2023/03/06 08:14:25;;;;;;;26.13;14.83;;;5.70;99.90;;;;;;5051022;28;20502;-70
2023/03/06 08:16:50;;;;;;;23.57;15.97;;;5.70;99.90;;;;;;5047358;28;20203;-71
2023/03/06 08:19:16;;;;;;;25.67;14.57;;;5.70;99.90;;;;;;5048532;28;20476;-69
2023/03/06 08:21:42;;;;;;;23.70;14.37;;;5.60;99.90;;;;;;5051152;28;20934;-73
2023/03/06 08:24:08;;;;;;;20.53;14.50;;;5.70;99.90;;;;;;5047998;28;20808;-71
2023/03/06 08:26:34;;;;;;;24.33;15.60;;;5.60;99.90;;;;;;5051340;28;21278;-73
2023/03/06 08:29:01;;;;;;;26.77;14.30;;;5.60;99.90;;;;;;5052450;28;20182;-72
2023/03/06 08:31:31;;;;;;;27.63;14.80;;;5.60;99.90;;;;;;5054188;28;20432;-72
2023/03/06 08:34:00;;;;;;;20.47;13.33;;;5.70;99.90;;;;;;5046486;28;20433;-72
2023/03/06 08:36:26;;;;;;;22.20;13.50;;;5.80;99.90;;;;;;5052234;28;20461;-71
2023/03/06 08:38:51;;;;;;;20.47;13.90;;;5.70;99.90;;;;;;5048759;28;20476;-71
2023/03/06 08:41:17;;;;;;;25.37;14.83;;;5.60;99.90;;;;;;5054106;28;20430;-72
2023/03/06 08:43:43;;;;;;;27.17;14.80;;;5.60;99.90;;;;;;5052805;28;20613;-70
2023/03/06 08:46:10;;;;;;;30.70;14.80;;;5.70;99.90;;;;;;5045680;28;20567;-71
2023/03/06 08:48:35;;;;;;;22.47;13.60;;;5.70;99.90;;;;;;5050305;28;20924;-74
2023/03/06 08:51:01;;;;;;;22.57;13.10;;;5.70;99.90;;;;;;5050743;28;20428;-73
2023/03/06 08:53:27;;;;;;;25.10;15.47;;;5.80;99.90;;;;;;5050042;28;20199;-72
2023/03/06 08:55:52;;;;;;;24.43;14.47;;;5.80;99.90;;;;;;5045826;28;20196;-71
2023/03/06 08:58:18;;;;;;;22.23;13.90;;;5.70;99.90;;;;;;5047923;28;20435;-71
2023/03/06 09:00:43;;;;;;;22.53;14.20;;;5.70;99.90;;;;;;5051897;28;20266;-72
2023/03/06 09:03:09;;;;;;;22.60;14.30;;;5.70;99.90;;;;;;5051666;28;20191;-71
2023/03/06 09:05:35;;;;;;;21.00;14.67;;;5.80;99.90;;;;;;5050405;28;20256;-71
2023/03/06 09:08:01;;;;;;;22.53;13.00;;;5.90;99.90;;;;;;5044217;28;20199;-72
2023/03/06 09:10:27;;;;;;;22.67;14.50;;;5.90;99.90;;;;;;5054055;28;20441;-70
2023/03/06 09:12:53;;;;;;;24.90;14.57;;;5.90;99.90;;;;;;5046822;28;20247;-70
2023/03/06 09:15:20;;;;;;;20.80;14.57;;;6.00;99.90;;;;;;5050861;28;20461;-70
2023/03/06 09:17:46;;;;;;;22.17;13.63;;;5.90;99.90;;;;;;5050140;28;20465;-70
2023/03/06 09:20:12;;;;;;;25.70;17.97;;;5.90;99.90;;;;;;5051817;28;20473;-71
2023/03/06 09:22:38;;;;;;;21.17;13.67;;;5.90;99.90;;;;;;5053093;28;20417;-70
2023/03/06 09:25:05;;;;;;;26.57;14.87;;;6.00;99.90;;;;;;5048844;28;20435;-70
2023/03/06 09:27:30;;;;;;;22.67;13.37;;;6.10;99.90;;;;;;5054033;28;20285;-74
2023/03/06 09:29:56;;;;;;;20.30;13.90;;;6.00;99.90;;;;;;5051181;28;20434;-73
2023/03/06 09:32:23;;;;;;;23.80;15.03;;;6.00;99.90;;;;;;5049289;28;20219;-74
2023/03/06 09:34:49;;;;;;;24.80;13.07;;;6.00;99.90;;;;;;5051876;28;20826;-72
2023/03/06 09:37:15;;;;;;;22.23;13.93;;;6.10;99.90;;;;;;5051002;28;20551;-72
2023/03/06 09:39:40;;;;;;;22.10;13.10;;;6.20;99.90;;;;;;5050257;28;20534;-75
2023/03/06 09:42:07;;;;;;;23.47;14.80;;;6.20;99.90;;;;;;5048787;28;20504;-70
2023/03/06 09:44:36;;;;;;;21.10;13.27;;;6.10;99.90;;;;;;5050750;28;20183;-70
2023/03/06 09:47:14;;;;;;;17.33;11.70;;;6.00;99.90;;;;;;5049210;28;20472;-70
2023/03/06 09:50:08;;;;;;;22.13;13.43;;;6.00;99.90;;;;;;5052360;28;20447;-69
2023/03/06 09:52:46;;;;;;;22.97;13.53;;;6.10;99.90;;;;;;5045030;28;20433;-68
2023/03/06 09:55:20;;;;;;;22.30;12.60;;;6.20;99.90;;;;;;5044836;28;20890;-68
2023/03/06 09:58:13;;;;;;;19.00;13.23;;;6.30;99.90;;;;;;5046624;28;20461;-68
2023/03/06 10:00:58;;;;;;;18.50;14.03;;;6.30;99.90;;;;;;5052920;28;20526;-68
2023/03/06 10:03:26;;;;;;;19.73;14.13;;;6.10;99.90;;;;;;5049700;28;20680;-71
2023/03/06 10:06:17;;;;;;;20.27;13.47;;;6.30;99.90;;;;;;5052401;28;20487;-76
2023/03/06 10:08:56;;;;;;;21.10;13.07;;;6.50;99.90;;;;;;5050239;28;20433;-75
2023/03/06 10:11:29;;;;;;;17.63;12.37;;;6.40;99.90;;;;;;5055517;28;20448;-69
2023/03/06 10:14:29;;;;;;;19.57;13.13;;;6.30;99.90;;;;;;5053450;28;20949;-74
2023/03/06 10:16:55;;;;;;;19.30;13.03;;;6.40;99.90;;;;;;5059576;28;20970;-69
2023/03/06 10:19:32;;;;;;;21.40;14.20;;;6.40;99.90;;;;;;5057045;28;20552;-68
2023/03/06 10:22:27;;;;;;;19.80;11.50;;;6.40;99.90;;;;;;5054618;28;20419;-70
2023/03/06 10:24:52;;;;;;;16.33;12.07;;;6.60;99.90;;;;;;5056702;28;20424;-67
2023/03/06 10:27:36;;;;;;;21.10;12.30;;;6.70;99.90;;;;;;5051266;28;21106;-72
2023/03/06 10:30:37;;;;;;;20.23;13.10;;;7.00;99.90;;;;;;5052382;28;20273;-71
2023/03/06 10:33:43;;;;;;;24.90;14.03;;;7.20;99.90;;;;;;5053351;28;21238;-72
2023/03/06 10:36:15;;;;;;;16.30;12.70;;;7.20;99.90;;;;;;5029932;28;20514;-73
2023/03/06 10:38:43;;;;;;;18.90;14.17;;;7.40;99.90;;;;;;5053007;28;20456;-70
2023/03/06 10:41:11;;;;;;;19.70;11.73;;;7.50;99.90;;;;;;5054567;28;20419;-69
2023/03/06 10:44:00;;;;;;;20.80;12.90;;;7.60;99.90;;;;;;5055639;28;20520;-74
2023/03/06 10:46:28;;;;;;;18.47;11.50;;;7.60;99.90;;;;;;5045002;28;20484;-70
2023/03/06 10:49:03;;;;;;;16.97;11.13;;;7.40;99.90;;;;;;5049777;28;20438;-71
2023/03/06 10:51:30;;;;;;;18.00;11.63;;;7.40;99.90;;;;;;5054248;28;20464;-72
2023/03/06 10:54:12;;;;;;;22.87;13.13;;;7.30;99.90;;;;;;5051215;28;20434;-73
2023/03/06 10:56:43;;;;;;;18.90;12.60;;;7.40;99.90;;;;;;5054947;28;20457;-70
2023/03/06 10:59:25;;;;;;;19.20;11.90;;;7.40;99.90;;;;;;5047041;28;20575;-71
2023/03/06 11:01:56;;;;;;;18.83;12.43;;;7.40;99.90;;;;;;5048416;28;20576;-70
2023/03/06 11:04:27;;;;;;;18.27;11.60;;;7.40;99.90;;;;;;5051326;28;20429;-68
2023/03/06 11:07:06;;;;;;;20.40;13.23;;;7.50;99.90;;;;;;5048543;28;20492;-72
2023/03/06 11:09:32;;;;;;;16.63;11.70;;;7.40;99.90;;;;;;5051955;28;20425;-71
2023/03/06 11:12:35;;;;;;;17.87;11.93;;;7.50;99.90;;;;;;5053992;28;20436;-72
2023/03/06 11:15:17;;;;;;;19.07;11.23;;;7.50;99.90;;;;;;5052417;28;20652;-73
2023/03/06 11:17:51;;;;;;;19.03;11.40;;;7.70;99.90;;;;;;5058662;28;20892;-72
2023/03/06 11:20:46;;;;;;;21.63;12.23;;;7.70;99.90;;;;;;5047556;28;20988;-71
2023/03/06 11:23:21;;;;;;;16.87;12.03;;;7.70;99.90;;;;;;5049551;28;20484;-73
2023/03/06 11:25:57;;;;;;;14.87;11.30;;;7.70;99.90;;;;;;5045418;28;21481;-72
2023/03/06 11:28:39;;;;;;;15.17;11.37;;;8.00;99.90;;;;;;5048729;28;20451;-72
2023/03/06 11:31:23;;;;;;;19.40;12.00;;;8.10;99.90;;;;;;5058493;28;20466;-71
2023/03/06 11:34:07;;;;;;;18.80;12.30;;;8.30;99.90;;;;;;5051946;28;20433;-71
2023/03/06 11:36:51;;;;;;;18.97;12.10;;;8.30;99.90;;;;;;5049287;28;20895;-72
2023/03/06 11:39:43;;;;;;;16.13;12.00;;;8.30;99.90;;;;;;5056868;28;20473;-72
2023/03/06 11:42:31;;;;;;;17.27;11.87;;;8.10;99.90;;;;;;5051282;28;20426;-77
2023/03/06 11:45:36;;;;;;;20.37;12.37;;;8.10;99.90;;;;;;5051964;28;20785;-78
2023/03/06 11:48:13;;;;;;;15.43;11.17;;;8.10;99.90;;;;;;5053401;28;21171;-78
2023/03/06 11:50:44;;;;;;;17.60;12.30;;;8.10;99.90;;;;;;5053289;28;20566;-77
2023/03/06 11:53:21;;;;;;;18.80;11.10;;;8.20;99.90;;;;;;5052190;28;20429;-77
2023/03/06 11:55:55;;;;;;;17.77;11.37;;;8.20;99.90;;;;;;5051576;28;20441;-77
2023/03/06 11:58:41;;;;;;;14.83;10.90;;;8.30;99.90;;;;;;5050188;28;20434;-74
2023/03/06 12:01:37;;;;;;;16.23;11.43;;;8.30;99.90;;;;;;5050449;28;21359;-74
2023/03/06 12:04:34;;;;;;;15.97;10.23;;;8.10;99.90;;;;;;5047323;28;20430;-72
2023/03/06 12:07:16;;;;;;;15.03;12.23;;;8.10;99.90;;;;;;5050590;28;20462;-74
2023/03/06 12:10:08;;;;;;;18.73;12.27;;;8.00;99.90;;;;;;5050896;28;20768;-72
2023/03/06 12:12:51;;;;;;;18.33;11.80;;;8.10;99.90;;;;;;5048749;28;20950;-75
2023/03/06 12:15:21;;;;;;;14.73;10.87;;;8.10;99.90;;;;;;5051718;28;20932;-75
2023/03/06 12:17:55;;;;;;;18.23;12.23;;;8.10;99.90;;;;;;5052359;28;20541;-69
2023/03/06 12:20:30;;;;;;;16.10;11.20;;;7.90;99.90;;;;;;5055432;28;20463;-67
2023/03/06 12:23:06;;;;;;;15.47;11.80;;;7.90;99.90;;;;;;5049143;28;20509;-69
2023/03/06 12:25:32;;;;;;;15.43;11.43;;;8.10;99.90;;;;;;5050244;28;20429;-68
2023/03/06 12:27:58;;;;;;;14.70;11.10;;;8.30;99.90;;;;;;5049130;28;20433;-67
2023/03/06 12:30:41;;;;;;;16.17;10.70;;;8.30;99.90;;;;;;5051541;28;20972;-69
2023/03/06 12:33:35;;;;;;;13.27;10.63;;;8.30;99.90;;;;;;5050011;28;20611;-70
2023/03/06 12:36:19;;;;;;;14.20;10.30;;;8.30;99.90;;;;;;5050688;28;20422;-69
2023/03/06 12:39:29;;;;;;;14.50;10.53;;;8.10;99.90;;;;;;5052881;28;20465;-70
2023/03/06 12:42:34;;;;;;;14.10;10.33;;;8.10;99.90;;;;;;4992888;28;21281;-68
2023/03/06 12:45:22;;;;;;;12.93;9.97;;;8.00;99.90;;;;;;4990648;28;20930;-70
2023/03/06 12:47:51;;;;;;;15.50;10.00;;;7.80;99.90;;;;;;5040586;28;20918;-68